createdAt,value
2019-05-02T00:00:54.793Z,10
2019-05-02T00:01:54.862Z,10
2019-05-02T00:02:54.933Z,10
2019-05-02T00:03:54.951Z,10
2019-05-02T00:04:55.757Z,10.2
2019-05-02T00:05:55.112Z,10.1
2019-05-02T00:06:55.110Z,10.1
2019-05-02T00:07:58.433Z,10.1
2019-05-02T00:08:55.261Z,10.1
2019-05-02T00:09:55.310Z,10.2
2019-05-02T00:10:55.391Z,10.3
2019-05-02T00:11:58.691Z,10.2
2019-05-02T00:12:55.482Z,10.3
2019-05-02T00:13:55.517Z,10.3
2019-05-02T00:14:56.415Z,10.3
2019-05-02T00:15:55.681Z,10.3
2019-05-02T00:16:55.721Z,10.2
2019-05-02T00:17:56.751Z,10.1
2019-05-02T00:18:55.901Z,10
2019-05-02T00:19:55.883Z,10.1
2019-05-02T00:20:57.005Z,10.1
2019-05-02T00:21:55.983Z,10
2019-05-02T00:22:56.048Z,10.1
2019-05-02T00:23:59.119Z,10
2019-05-02T00:24:56.163Z,10
2019-05-02T00:25:56.243Z,10
2019-05-02T00:27:01.166Z,9.9
2019-05-02T00:27:56.335Z,10
2019-05-02T00:28:56.397Z,10
2019-05-02T00:29:58.595Z,10
2019-05-02T00:30:56.536Z,10
2019-05-02T00:31:56.621Z,10
2019-05-02T00:32:58.171Z,10
2019-05-02T00:33:56.746Z,9.9
2019-05-02T00:34:56.798Z,9.8
2019-05-02T00:35:56.878Z,9.9
2019-05-02T00:36:56.916Z,9.9
2019-05-02T00:37:57.326Z,9.9
2019-05-02T00:38:57.010Z,9.9
2019-05-02T00:39:57.100Z,9.9
2019-05-02T00:41:01.701Z,9.9
2019-05-02T00:41:57.258Z,9.9
2019-05-02T00:42:58.130Z,9.9
2019-05-02T00:43:57.346Z,9.9
2019-05-02T00:44:57.399Z,9.9
2019-05-02T00:45:59.693Z,9.8
2019-05-02T00:46:57.593Z,9.8
2019-05-02T00:47:57.884Z,9.8
2019-05-02T00:48:59.540Z,9.7
2019-05-02T00:49:57.630Z,9.8
2019-05-02T00:50:57.730Z,9.8
2019-05-02T00:52:01.258Z,9.8
2019-05-02T00:52:57.812Z,9.9
2019-05-02T00:53:57.851Z,9.9
2019-05-02T00:54:58.656Z,9.9
2019-05-02T00:55:57.955Z,9.8
2019-05-02T00:56:58.019Z,9.8
2019-05-02T00:57:58.085Z,9.7
2019-05-02T00:59:02.230Z,9.8
2019-05-02T00:59:58.188Z,9.8
2019-05-02T01:00:58.236Z,9.8
2019-05-02T01:01:59.923Z,9.8
2019-05-02T01:02:58.348Z,9.7
2019-05-02T01:03:58.390Z,9.6
2019-05-02T01:04:59.221Z,9.5
2019-05-02T01:05:58.519Z,9.3
2019-05-02T01:06:58.568Z,9.3
2019-05-02T01:08:01.003Z,9.5
2019-05-02T01:08:58.681Z,9.7
2019-05-02T01:09:58.703Z,9.6
2019-05-02T01:10:58.792Z,9.5
2019-05-02T01:12:03.003Z,9.6
2019-05-02T01:12:58.901Z,9.5
2019-05-02T01:13:58.977Z,9.4
2019-05-02T01:15:03.174Z,9.4
2019-05-02T01:15:59.093Z,9.4
2019-05-02T01:16:59.176Z,9.3
2019-05-02T01:18:01.023Z,9.2
2019-05-02T01:18:59.305Z,9.2
2019-05-02T01:19:59.331Z,9.2
2019-05-02T01:21:02.689Z,9
2019-05-02T01:21:59.474Z,8.9
2019-05-02T01:22:59.533Z,9
2019-05-02T01:24:02.917Z,9.2
2019-05-02T01:24:59.648Z,9.1
2019-05-02T01:25:59.710Z,9
2019-05-02T01:27:04.067Z,9
2019-05-02T01:27:59.800Z,8.9
2019-05-02T01:28:59.875Z,8.7
2019-05-02T01:30:01.296Z,8.8
2019-05-02T01:31:00.015Z,8.8
2019-05-02T01:32:00.086Z,8.8
2019-05-02T01:33:01.255Z,8.9
2019-05-02T01:34:00.508Z,8.9
2019-05-02T01:35:00.504Z,8.9
2019-05-02T01:36:01.628Z,8.9
2019-05-02T01:37:00.496Z,8.9
2019-05-02T01:38:00.484Z,8.9
2019-05-02T01:39:02.836Z,8.9
2019-05-02T01:40:00.627Z,8.9
2019-05-02T01:41:00.662Z,8.8
2019-05-02T01:42:04.074Z,8.9
2019-05-02T01:43:00.786Z,8.9
2019-05-02T01:44:01.619Z,9
2019-05-02T01:45:00.926Z,8.8
2019-05-02T01:46:00.926Z,8.7
2019-05-02T01:47:01.136Z,8.7
2019-05-02T01:49:01.366Z,8.6
2019-05-02T01:50:01.408Z,8.5
2019-05-02T01:51:04.245Z,8.5
2019-05-02T01:52:01.554Z,8.5
2019-05-02T01:53:01.580Z,8.5
2019-05-02T01:54:04.890Z,8.5
2019-05-02T01:55:01.720Z,8.5
2019-05-02T01:56:01.772Z,8.4
2019-05-02T01:57:03.865Z,8.4
2019-05-02T01:58:01.954Z,8.3
2019-05-02T01:59:01.938Z,8.1
2019-05-02T02:00:04.111Z,8.1
2019-05-02T02:01:02.069Z,8.2
2019-05-02T02:02:02.107Z,8.3
2019-05-02T02:03:04.102Z,8.3
2019-05-02T02:04:02.260Z,8.2
2019-05-02T02:05:02.293Z,8.2
2019-05-02T02:06:02.737Z,8.3
2019-05-02T02:07:02.418Z,8.3
2019-05-02T02:08:02.473Z,8.3
2019-05-02T02:09:03.273Z,8.4
2019-05-02T02:10:02.546Z,8.4
2019-05-02T02:11:02.603Z,8.5
2019-05-02T02:12:04.881Z,8.6
2019-05-02T02:13:04.981Z,8.7
2019-05-02T02:14:07.119Z,8.7
2019-05-02T02:15:02.802Z,8.5
2019-05-02T02:16:04.298Z,8.7
2019-05-02T02:17:02.925Z,8.6
2019-05-02T02:18:02.990Z,8.6
2019-05-02T02:19:03.916Z,8.5
2019-05-02T02:20:03.066Z,8.6
2019-05-02T02:21:03.153Z,8.6
2019-05-02T02:22:04.375Z,8.7
2019-05-02T02:23:03.258Z,8.6
2019-05-02T02:24:03.310Z,8.5
2019-05-02T02:25:03.391Z,8.6
2019-05-02T02:26:06.681Z,8.5
2019-05-02T02:27:03.470Z,8.6
2019-05-02T02:28:03.543Z,8.3
2019-05-02T02:29:07.750Z,8.3
2019-05-02T02:30:03.671Z,8.3
2019-05-02T02:31:04.604Z,8.2
2019-05-02T02:32:03.781Z,8.1
2019-05-02T02:33:07.330Z,8
2019-05-02T02:34:03.953Z,8.1
2019-05-02T02:35:09.864Z,8.2
2019-05-02T02:36:04.260Z,8.1
2019-05-02T02:37:12.160Z,8
2019-05-02T02:38:04.154Z,7.9
2019-05-02T02:39:06.808Z,7.9
2019-05-02T02:40:04.462Z,7.9
2019-05-02T02:41:06.322Z,7.8
2019-05-02T02:42:04.436Z,7.9
2019-05-02T02:43:22.405Z,8
2019-05-02T02:44:04.502Z,8
2019-05-02T02:45:04.664Z,8.2
2019-05-02T02:46:04.625Z,8.3
2019-05-02T02:47:04.685Z,8.3
2019-05-02T02:48:04.738Z,8.1
2019-05-02T02:49:04.781Z,8.1
2019-05-02T02:50:05.302Z,8.2
2019-05-02T02:51:04.857Z,8
2019-05-02T02:52:06.838Z,8
2019-05-02T02:53:05.005Z,8
2019-05-02T02:54:05.735Z,8
2019-05-02T02:55:05.159Z,8
2019-05-02T02:56:05.164Z,7.8
2019-05-02T02:57:05.236Z,7.8
2019-05-02T02:58:06.570Z,7.9
2019-05-02T02:59:05.335Z,7.7
2019-05-02T03:00:07.403Z,7.7
2019-05-02T03:01:05.460Z,7.8
2019-05-02T03:02:09.791Z,7.9
2019-05-02T03:03:05.588Z,7.8
2019-05-02T03:04:09.072Z,7.8
2019-05-02T03:05:05.684Z,7.7
2019-05-02T03:06:07.945Z,7.6
2019-05-02T03:07:05.813Z,7.7
2019-05-02T03:08:07.217Z,7.7
2019-05-02T03:09:05.905Z,7.7
2019-05-02T03:10:08.359Z,7.8
2019-05-02T03:11:06.018Z,7.7
2019-05-02T03:12:06.076Z,7.6
2019-05-02T03:13:06.148Z,7.6
2019-05-02T03:14:09.221Z,7.6
2019-05-02T03:15:06.264Z,7.5
2019-05-02T03:16:07.258Z,7.6
2019-05-02T03:17:06.384Z,7.6
2019-05-02T03:18:06.435Z,7.6
2019-05-02T03:19:06.479Z,7.6
2019-05-02T03:20:07.278Z,7.5
2019-05-02T03:21:06.587Z,7.4
2019-05-02T03:22:06.662Z,7.3
2019-05-02T03:23:06.752Z,7.3
2019-05-02T03:24:06.775Z,7.3
2019-05-02T03:25:06.810Z,7.4
2019-05-02T03:26:07.769Z,7.4
2019-05-02T03:27:07.009Z,7.5
2019-05-02T03:28:17.233Z,7.5
2019-05-02T03:29:07.074Z,7.5
2019-05-02T03:30:07.173Z,7.5
2019-05-02T03:31:20.837Z,7.5
2019-05-02T03:32:26.874Z,7.5
2019-05-02T03:33:11.122Z,7.5
2019-05-02T03:34:07.335Z,7.5
2019-05-02T03:35:07.378Z,7.5
2019-05-02T03:36:25.578Z,7.5
2019-05-02T03:37:10.019Z,7.5
2019-05-02T03:38:07.587Z,7.6
2019-05-02T03:39:14.544Z,7.6
2019-05-02T03:40:07.730Z,7.5
2019-05-02T03:41:13.053Z,7.5
2019-05-02T03:42:07.878Z,7.5
2019-05-02T03:43:07.903Z,7.4
2019-05-02T03:44:14.233Z,7.7
2019-05-02T03:45:07.993Z,7.7
2019-05-02T03:46:13.391Z,7.7
2019-05-02T03:47:08.084Z,7.8
2019-05-02T03:48:08.151Z,7.8
2019-05-02T03:49:09.646Z,7.7
2019-05-02T03:50:09.505Z,7.6
2019-05-02T03:51:19.078Z,7.7
2019-05-02T03:52:08.403Z,7.6
2019-05-02T03:53:08.463Z,7.6
2019-05-02T03:54:10.269Z,7.6
2019-05-02T03:55:08.577Z,7.7
2019-05-02T03:56:11.337Z,7.7
2019-05-02T03:57:08.699Z,7.7
2019-05-02T03:58:16.077Z,7.8
2019-05-02T03:59:08.847Z,7.8
2019-05-02T04:00:13.551Z,7.8
2019-05-02T04:01:08.987Z,7.7
2019-05-02T04:02:13.866Z,7.6
2019-05-02T04:03:09.093Z,7.6
2019-05-02T04:04:14.011Z,7.6
2019-05-02T04:05:09.201Z,7.6
2019-05-02T04:07:09.495Z,7.7
2019-05-02T04:08:19.394Z,7.9
2019-05-02T04:09:09.882Z,7.9
2019-05-02T04:11:09.689Z,8.1
2019-05-02T04:13:09.904Z,8.2
2019-05-02T04:14:15.868Z,8.2
2019-05-02T04:15:09.909Z,8.2
2019-05-02T04:16:15.223Z,8.3
2019-05-02T04:17:09.957Z,8.2
2019-05-02T04:18:15.154Z,8.2
2019-05-02T04:19:10.124Z,8.2
2019-05-02T04:20:12.600Z,7.9
2019-05-02T04:21:10.083Z,7.8
2019-05-02T04:22:11.850Z,8
2019-05-02T04:23:10.161Z,8.1
2019-05-02T04:24:14.875Z,8.3
2019-05-02T04:25:10.319Z,8.4
2019-05-02T04:26:12.620Z,8.4
2019-05-02T04:27:10.371Z,8.3
2019-05-02T04:28:11.846Z,8.1
2019-05-02T04:29:10.470Z,8.2
2019-05-02T04:30:13.786Z,8.3
2019-05-02T04:31:10.579Z,8.1
2019-05-02T04:32:11.871Z,8.2
2019-05-02T04:33:10.676Z,8
2019-05-02T04:34:15.014Z,8
2019-05-02T04:35:10.809Z,8
2019-05-02T04:36:14.996Z,8.1
2019-05-02T04:37:10.915Z,8.2
2019-05-02T04:38:19.931Z,8.2
2019-05-02T04:39:12.459Z,8.1
2019-05-02T04:40:12.423Z,7.9
2019-05-02T04:41:11.135Z,7.9
2019-05-02T04:42:18.466Z,8.3
2019-05-02T04:43:11.638Z,8.3
2019-05-02T04:44:11.297Z,8.3
2019-05-02T04:45:21.615Z,8.5
2019-05-02T04:46:17.822Z,8.7
2019-05-02T04:47:17.256Z,8.7
2019-05-02T04:48:11.444Z,8.7
2019-05-02T04:49:11.527Z,8.5
2019-05-02T04:50:17.799Z,8.5
2019-05-02T04:51:16.239Z,8.6
2019-05-02T04:52:14.749Z,8.6
2019-05-02T04:53:11.715Z,8.4
2019-05-02T04:54:21.265Z,8.4
2019-05-02T04:55:19.639Z,8.5
2019-05-02T04:56:11.946Z,8.7
2019-05-02T04:57:11.969Z,8.5
2019-05-02T04:58:23.844Z,8.4
2019-05-02T04:59:17.526Z,8.5
2019-05-02T05:00:12.246Z,8.6
2019-05-02T05:01:12.179Z,8.8
2019-05-02T05:02:12.264Z,8.8
2019-05-02T05:03:15.350Z,8.8
2019-05-02T05:04:12.366Z,8.8
2019-05-02T05:05:17.114Z,8.8
2019-05-02T05:06:12.647Z,8.7
2019-05-02T05:07:12.564Z,8.5
2019-05-02T05:08:17.363Z,8.6
2019-05-02T05:09:14.695Z,8.4
2019-05-02T05:10:12.766Z,8.3
2019-05-02T05:11:13.835Z,8.3
2019-05-02T05:12:12.815Z,8.5
2019-05-02T05:13:17.280Z,8.4
2019-05-02T05:14:12.938Z,8.4
2019-05-02T05:15:22.641Z,8.6
2019-05-02T05:16:15.610Z,8.7
2019-05-02T05:17:13.362Z,8.7
2019-05-02T05:18:14.594Z,8.7
2019-05-02T05:19:13.195Z,8.6
2019-05-02T05:20:15.584Z,8.7
2019-05-02T05:21:14.329Z,8.8
2019-05-02T05:22:13.416Z,8.9
2019-05-02T05:23:15.590Z,8.9
2019-05-02T05:24:13.550Z,8.9
2019-05-02T05:25:24.148Z,8.9
2019-05-02T05:26:13.746Z,8.9
2019-05-02T05:27:18.746Z,8.8
2019-05-02T05:28:13.691Z,8.9
2019-05-02T05:29:18.103Z,8.9
2019-05-02T05:30:15.579Z,8.9
2019-05-02T05:31:16.319Z,8.9
2019-05-02T05:32:13.872Z,8.8
2019-05-02T05:33:14.539Z,8.8
2019-05-02T05:34:14.521Z,8.9
2019-05-02T05:35:14.345Z,9.1
2019-05-02T05:36:14.161Z,9.2
2019-05-02T05:37:14.175Z,9.1
2019-05-02T05:38:14.255Z,8.9
2019-05-02T05:39:14.484Z,8.5
2019-05-02T05:40:14.361Z,8.4
2019-05-02T05:41:17.188Z,8.8
2019-05-02T05:42:14.455Z,8.7
2019-05-02T05:43:15.702Z,8.6
2019-05-02T05:44:14.603Z,8.6
2019-05-02T05:45:14.641Z,8.6
2019-05-02T05:46:14.670Z,8.5
2019-05-02T05:47:17.495Z,8.7
2019-05-02T05:48:18.364Z,8.9
2019-05-02T05:49:20.311Z,9
2019-05-02T05:50:17.624Z,8.9
2019-05-02T05:51:20.601Z,8.9
2019-05-02T05:52:18.058Z,8.6
2019-05-02T05:53:20.945Z,8.7
2019-05-02T05:54:17.807Z,8.7
2019-05-02T05:55:23.884Z,9.2
2019-05-02T05:56:17.984Z,9.1
2019-05-02T05:57:20.904Z,8.8
2019-05-02T05:58:18.692Z,17.2
2019-05-02T05:59:17.624Z,9
2019-05-02T06:00:22.880Z,9.1
2019-05-02T06:01:20.343Z,9.1
2019-05-02T06:02:18.322Z,9.1
2019-05-02T06:03:18.017Z,9
2019-05-02T06:04:19.228Z,9
2019-05-02T06:05:17.775Z,8.9
2019-05-02T06:06:22.305Z,8.7
2019-05-02T06:07:20.022Z,8.7
2019-05-02T06:08:19.920Z,8.7
2019-05-02T06:09:18.144Z,8.5
2019-05-02T06:10:18.037Z,8.4
2019-05-02T06:11:19.931Z,8.2
2019-05-02T06:12:18.170Z,8.1
2019-05-02T06:13:18.225Z,8.3
2019-05-02T06:14:19.870Z,8.4
2019-05-02T06:15:18.303Z,8.4
2019-05-02T06:16:18.365Z,8.5
2019-05-02T06:17:18.424Z,8.7
2019-05-02T06:18:18.487Z,8.6
2019-05-02T06:19:19.073Z,8.7
2019-05-02T06:20:18.621Z,8.8
2019-05-02T06:21:18.885Z,9
2019-05-02T06:22:24.279Z,8.8
2019-05-02T06:23:18.792Z,8.7
2019-05-02T06:24:18.875Z,8.9
2019-05-02T06:25:31.989Z,9.1
2019-05-02T06:26:18.956Z,9
2019-05-02T06:27:20.722Z,8.7
2019-05-02T06:28:19.076Z,8.7
2019-05-02T06:29:20.856Z,8.8
2019-05-02T06:30:19.526Z,8.7
2019-05-02T06:31:19.381Z,8.9
2019-05-02T06:32:20.624Z,8.7
2019-05-02T06:33:19.370Z,8.7
2019-05-02T06:34:19.502Z,8.7
2019-05-02T06:35:21.067Z,8.6
2019-05-02T06:36:19.582Z,8.7
2019-05-02T06:37:20.871Z,8.8
2019-05-02T06:38:21.509Z,8.7
2019-05-02T06:39:20.279Z,17.2
2019-05-02T06:40:19.792Z,25.6
2019-05-02T06:41:20.892Z,34.1
2019-05-02T06:42:20.031Z,25.6
2019-05-02T06:43:20.310Z,8.8
2019-05-02T06:44:23.695Z,8.9
2019-05-02T06:45:20.103Z,9
2019-05-02T06:46:27.007Z,9
2019-05-02T06:47:21.000Z,9
2019-05-02T06:48:20.387Z,8.9
2019-05-02T06:49:24.085Z,8.9
2019-05-02T06:50:20.448Z,9.1
2019-05-02T06:51:21.088Z,9.4
2019-05-02T06:52:20.503Z,9.3
2019-05-02T06:53:26.582Z,9.1
2019-05-02T06:54:22.772Z,9
2019-05-02T06:55:20.725Z,8.9
2019-05-02T06:56:20.777Z,8.9
2019-05-02T06:57:23.998Z,9.1
2019-05-02T06:58:20.851Z,9
2019-05-02T06:59:21.025Z,9
2019-05-02T07:00:21.003Z,9
2019-05-02T07:01:21.600Z,9.1
2019-05-02T07:02:21.128Z,9.2
2019-05-02T07:03:21.208Z,9.5
2019-05-02T07:04:22.751Z,9.5
2019-05-02T07:05:21.299Z,9.5
2019-05-02T07:06:21.409Z,9.7
2019-05-02T07:07:24.813Z,9.6
2019-05-02T07:08:21.524Z,9.6
2019-05-02T07:09:21.824Z,9.4
2019-05-02T07:10:25.308Z,9.4
2019-05-02T07:11:21.625Z,9.3
2019-05-02T07:12:21.678Z,9.3
2019-05-02T07:13:21.790Z,9.2
2019-05-02T07:14:23.338Z,9.2
2019-05-02T07:15:21.984Z,9.2
2019-05-02T07:16:36.756Z,9.2
2019-05-02T07:17:26.391Z,9.3
2019-05-02T07:18:22.146Z,9.1
2019-05-02T07:19:27.179Z,9
2019-05-02T07:20:22.223Z,9
2019-05-02T07:21:23.528Z,9
2019-05-02T07:22:22.315Z,9.1
2019-05-02T07:23:22.331Z,9.1
2019-05-02T07:24:25.130Z,9.2
2019-05-02T07:25:22.505Z,9.1
2019-05-02T07:26:23.265Z,9.2
2019-05-02T07:27:22.587Z,9.3
2019-05-02T07:28:24.077Z,9.4
2019-05-02T07:29:23.119Z,9.5
2019-05-02T07:30:22.752Z,9.6
2019-05-02T07:31:23.179Z,9.7
2019-05-02T07:32:24.553Z,9.6
2019-05-02T07:33:22.952Z,9.5
2019-05-02T07:34:23.038Z,9.5
2019-05-02T07:35:24.378Z,9.3
2019-05-02T07:36:23.131Z,9.1
2019-05-02T07:37:23.238Z,9.1
2019-05-02T07:38:25.547Z,9.3
2019-05-02T07:39:23.329Z,9.2
2019-05-02T07:40:23.353Z,9.3
2019-05-02T07:41:24.075Z,9.6
2019-05-02T07:42:23.489Z,9.8
2019-05-02T07:43:23.537Z,9.7
2019-05-02T07:44:27.053Z,9.8
2019-05-02T07:45:23.690Z,9.6
2019-05-02T07:46:23.757Z,9.8
2019-05-02T07:47:23.772Z,9.8
2019-05-02T07:48:23.818Z,9.9
2019-05-02T07:49:26.511Z,10.1
2019-05-02T07:50:24.001Z,10.2
2019-05-02T07:51:24.024Z,10.1
2019-05-02T07:52:24.102Z,9.9
2019-05-02T07:53:24.130Z,10
2019-05-02T07:54:24.917Z,10
2019-05-02T07:56:18.968Z,10.2
2019-05-02T07:56:24.291Z,10.4
2019-05-02T07:57:37.610Z,10.6
2019-05-02T07:58:37.959Z,11
2019-05-02T07:59:25.115Z,11
2019-05-02T08:00:24.558Z,10.8
2019-05-02T08:01:24.622Z,10.3
2019-05-02T08:02:26.289Z,10.3
2019-05-02T08:03:29.298Z,10.2
2019-05-02T08:04:24.856Z,10.1
2019-05-02T08:05:24.855Z,18.4
2019-05-02T08:06:34.884Z,10.3
2019-05-02T08:07:27.201Z,10
2019-05-02T08:08:29.674Z,9.8
2019-05-02T08:09:25.074Z,9.8
2019-05-02T08:10:25.103Z,10
2019-05-02T08:11:25.119Z,10
2019-05-02T08:12:25.218Z,10
2019-05-02T08:13:25.261Z,10.1
2019-05-02T08:14:29.115Z,10
2019-05-02T08:15:25.376Z,9.8
2019-05-02T08:16:27.301Z,9.8
2019-05-02T08:17:25.483Z,9.8
2019-05-02T08:18:30.225Z,9.9
2019-05-02T08:19:25.627Z,10.1
2019-05-02T08:20:25.641Z,10.2
2019-05-02T08:21:27.154Z,10
2019-05-02T08:22:25.763Z,9.9
2019-05-02T08:23:27.786Z,10
2019-05-02T08:24:25.884Z,10.1
2019-05-02T08:25:25.874Z,10
2019-05-02T08:26:25.980Z,10.2
2019-05-02T08:27:29.134Z,10.1
2019-05-02T08:28:26.088Z,10
2019-05-02T08:29:28.718Z,9.7
2019-05-02T08:30:26.240Z,9.6
2019-05-02T08:31:26.270Z,9.6
2019-05-02T08:32:26.341Z,9.8
2019-05-02T08:33:29.070Z,9.9
2019-05-02T08:34:26.473Z,10
2019-05-02T08:35:28.184Z,10
2019-05-02T08:36:26.550Z,10
2019-05-02T08:37:26.652Z,10.1
2019-05-02T08:38:26.637Z,10
2019-05-02T08:39:32.989Z,9.8
2019-05-02T08:40:26.716Z,9.8
2019-05-02T08:41:26.731Z,9.7
2019-05-02T08:42:27.642Z,10
2019-05-02T08:43:26.883Z,10.2
2019-05-02T08:44:27.063Z,10.3
2019-05-02T08:45:27.038Z,10.4
2019-05-02T08:46:27.109Z,11.2
2019-05-02T08:47:28.441Z,10.7
2019-05-02T08:48:27.169Z,10.4
2019-05-02T08:49:27.276Z,18.7
2019-05-02T08:50:31.760Z,10.3
2019-05-02T08:51:27.367Z,10.4
2019-05-02T08:52:27.403Z,10.4
2019-05-02T08:53:27.487Z,10.4
2019-05-02T08:54:27.874Z,10.1
2019-05-02T08:55:29.955Z,10.1
2019-05-02T08:56:27.684Z,10.3
2019-05-02T08:57:29.928Z,10.4
2019-05-02T08:58:27.810Z,10.5
2019-05-02T08:59:28.870Z,10.6
2019-05-02T09:00:32.034Z,10.4
2019-05-02T09:01:34.801Z,10.4
2019-05-02T09:02:40.693Z,10.5
2019-05-02T09:03:28.172Z,10.5
2019-05-02T09:04:29.009Z,10.5
2019-05-02T09:05:28.239Z,10.4
2019-05-02T09:06:28.400Z,10.5
2019-05-02T09:07:31.499Z,10.6
2019-05-02T09:08:28.417Z,10.7
2019-05-02T09:09:29.504Z,10.7
2019-05-02T09:10:28.554Z,10.7
2019-05-02T09:11:29.417Z,10.8
2019-05-02T09:12:28.671Z,10.7
2019-05-02T09:13:29.430Z,10.7
2019-05-02T09:14:28.793Z,10.7
2019-05-02T09:15:29.263Z,10.6
2019-05-02T09:16:30.410Z,10.6
2019-05-02T09:17:35.897Z,10.7
2019-05-02T09:18:34.936Z,10.9
2019-05-02T09:19:32.269Z,10.9
2019-05-02T09:20:29.132Z,10.9
2019-05-02T09:21:32.054Z,11
2019-05-02T09:22:29.208Z,11
2019-05-02T09:23:32.985Z,10.9
2019-05-02T09:24:29.387Z,10.9
2019-05-02T09:25:29.642Z,10.9
2019-05-02T09:26:35.911Z,10.8
2019-05-02T09:27:31.625Z,10.8
2019-05-02T09:28:29.687Z,10.9
2019-05-02T09:29:30.182Z,10.8
2019-05-02T09:30:29.736Z,10.9
2019-05-02T09:31:31.938Z,10.8
2019-05-02T09:32:29.792Z,10.6
2019-05-02T09:33:32.043Z,10.6
2019-05-02T09:34:31.723Z,10.6
2019-05-02T09:35:32.907Z,10.8
2019-05-02T09:36:32.080Z,10.8
2019-05-02T09:37:32.086Z,10.8
2019-05-02T09:38:30.152Z,11.1
2019-05-02T09:39:32.541Z,11.1
2019-05-02T09:40:31.849Z,11
2019-05-02T09:41:32.331Z,11.2
2019-05-02T09:42:32.352Z,11.3
2019-05-02T09:43:34.691Z,11.3
2019-05-02T09:44:33.048Z,11.2
2019-05-02T09:45:33.233Z,11.3
2019-05-02T09:46:32.434Z,11.3
2019-05-02T09:47:32.972Z,11.2
2019-05-02T09:48:31.882Z,11.3
2019-05-02T09:49:32.975Z,11.3
2019-05-02T09:50:32.061Z,11.3
2019-05-02T09:51:32.533Z,11.3
2019-05-02T09:52:39.152Z,11.2
2019-05-02T09:53:32.324Z,11.2
2019-05-02T09:54:32.220Z,11.3
2019-05-02T09:55:32.666Z,11.3
2019-05-02T09:56:32.497Z,11.2
2019-05-02T09:57:32.900Z,11.3
2019-05-02T09:58:32.111Z,11.5
2019-05-02T09:59:33.586Z,11.5
2019-05-02T10:00:36.112Z,11.5
2019-05-02T10:01:34.315Z,11.6
2019-05-02T10:02:33.655Z,11.8
2019-05-02T10:03:33.352Z,11.9
2019-05-02T10:04:32.697Z,12
2019-05-02T10:05:32.262Z,12.4
2019-05-02T10:06:34.254Z,12.5
2019-05-02T10:07:32.469Z,12.8
2019-05-02T10:08:32.211Z,12.8
2019-05-02T10:09:32.444Z,12.2
2019-05-02T10:10:37.024Z,11.6
2019-05-02T10:11:33.619Z,11.7
2019-05-02T10:12:32.371Z,11.8
2019-05-02T10:13:33.878Z,11.8
2019-05-02T10:14:33.129Z,12
2019-05-02T10:15:33.807Z,12.2
2019-05-02T10:16:32.565Z,12.3
2019-05-02T10:17:37.421Z,12.5
2019-05-02T10:18:32.892Z,12.6
2019-05-02T10:19:41.050Z,12.7
2019-05-02T10:20:36.091Z,12.9
2019-05-02T10:21:34.120Z,12.6
2019-05-02T10:22:39.197Z,12.7
2019-05-02T10:23:33.631Z,21.1
2019-05-02T10:24:32.991Z,13.3
2019-05-02T10:25:38.414Z,13.5
2019-05-02T10:26:33.051Z,13.3
2019-05-02T10:27:33.223Z,13.3
2019-05-02T10:28:33.033Z,13.4
2019-05-02T10:29:33.345Z,13.2
2019-05-02T10:30:35.789Z,13.2
2019-05-02T10:31:37.410Z,13.3
2019-05-02T10:32:33.270Z,13.2
2019-05-02T10:33:37.426Z,13.4
2019-05-02T10:34:33.388Z,13.2
2019-05-02T10:35:37.113Z,13.3
2019-05-02T10:36:33.522Z,13.2
2019-05-02T10:37:38.154Z,12.8
2019-05-02T10:38:33.636Z,12.6
2019-05-02T10:39:37.612Z,13
2019-05-02T10:40:33.668Z,13.2
2019-05-02T10:41:39.285Z,45.2
2019-05-02T10:42:33.807Z,13.8
2019-05-02T10:43:33.829Z,13.8
2019-05-02T10:44:36.426Z,13.5
2019-05-02T10:45:33.957Z,13.3
2019-05-02T10:46:37.642Z,13.4
2019-05-02T10:47:36.296Z,29.3
2019-05-02T10:48:34.170Z,13.5
2019-05-02T10:49:34.450Z,13.6
2019-05-02T10:50:34.235Z,13.7
2019-05-02T10:51:34.353Z,13.9
2019-05-02T10:52:34.413Z,21.8
2019-05-02T10:53:34.461Z,13.7
2019-05-02T10:54:37.444Z,13.5
2019-05-02T10:55:34.501Z,13.6
2019-05-02T10:56:34.596Z,13.7
2019-05-02T10:57:34.608Z,14.1
2019-05-02T10:58:35.736Z,14.1
2019-05-02T10:59:36.125Z,14
2019-05-02T11:00:34.767Z,14.2
2019-05-02T11:01:34.862Z,14.6
2019-05-02T11:02:34.889Z,14.5
2019-05-02T11:03:37.880Z,14.7
2019-05-02T11:04:34.984Z,14.8
2019-05-02T11:05:37.262Z,14.4
2019-05-02T11:06:37.063Z,14.1
2019-05-02T11:07:35.562Z,13.7
2019-05-02T11:08:36.597Z,13.7
2019-05-02T11:09:35.538Z,13.8
2019-05-02T11:10:35.333Z,14.1
2019-05-02T11:11:36.598Z,14.5
2019-05-02T11:12:43.980Z,15.1
2019-05-02T11:13:35.876Z,30.9
2019-05-02T11:14:35.576Z,15.5
2019-05-02T11:15:36.001Z,15.4
2019-05-02T11:16:35.740Z,15.3
2019-05-02T11:17:36.414Z,15.3
2019-05-02T11:18:41.836Z,15
2019-05-02T11:19:36.048Z,14.9
2019-05-02T11:20:35.958Z,14.6
2019-05-02T11:21:36.019Z,14.5
2019-05-02T11:22:36.041Z,14.4
2019-05-02T11:23:36.136Z,15
2019-05-02T11:24:36.141Z,15.5
2019-05-02T11:25:36.177Z,15.7
2019-05-02T11:26:36.274Z,15.7
2019-05-02T11:27:36.261Z,15.5
2019-05-02T11:28:36.391Z,15.7
2019-05-02T11:29:36.447Z,15.4
2019-05-02T11:30:36.486Z,15.4
2019-05-02T11:31:36.630Z,15.5
2019-05-02T11:32:36.636Z,15
2019-05-02T11:33:36.661Z,15
2019-05-02T11:34:36.757Z,15.3
2019-05-02T11:35:36.806Z,15.3
2019-05-02T11:36:36.906Z,15.1
2019-05-02T11:37:36.886Z,14.9
2019-05-02T11:38:44.471Z,15
2019-05-02T11:39:44.477Z,15.3
2019-05-02T11:40:37.116Z,15.7
2019-05-02T11:41:37.164Z,15.8
2019-05-02T11:42:37.207Z,16.1
2019-05-02T11:43:41.406Z,16.2
2019-05-02T11:44:37.314Z,16.3
2019-05-02T11:45:37.373Z,16.2
2019-05-02T11:46:42.045Z,15.9
2019-05-02T11:47:37.489Z,15.8
2019-05-02T11:48:37.534Z,31
2019-05-02T11:49:37.575Z,15.8
2019-05-02T11:50:37.657Z,16
2019-05-02T11:51:37.723Z,15.1
2019-05-02T11:52:37.750Z,14.8
2019-05-02T11:53:37.760Z,15.2
2019-05-02T11:54:39.110Z,15.6
2019-05-02T11:55:37.930Z,15.4
2019-05-02T11:56:41.008Z,15.3
2019-05-02T11:57:38.070Z,15.4
2019-05-02T11:58:40.731Z,15.7
2019-05-02T11:59:38.163Z,16
2019-05-02T12:00:39.594Z,16
2019-05-02T12:01:39.628Z,16.3
2019-05-02T12:02:38.309Z,24
2019-05-02T12:03:38.371Z,16.3
2019-05-02T12:04:38.408Z,16.2
2019-05-02T12:05:39.327Z,16
2019-05-02T12:06:38.548Z,15.8
2019-05-02T12:07:38.582Z,15.7
2019-05-02T12:08:39.308Z,15.8
2019-05-02T12:09:38.685Z,31.4
2019-05-02T12:10:38.754Z,15.7
2019-05-02T12:11:38.848Z,15.4
2019-05-02T12:12:38.885Z,15.7
2019-05-02T12:13:38.932Z,16
2019-05-02T12:14:38.970Z,16.5
2019-05-02T12:15:41.459Z,16.6
2019-05-02T12:16:39.169Z,16.8
2019-05-02T12:17:39.158Z,17
2019-05-02T12:18:39.250Z,16.8
2019-05-02T12:19:39.294Z,16.7
2019-05-02T12:20:39.396Z,16.8
2019-05-02T12:21:39.442Z,16.8
2019-05-02T12:22:39.460Z,16.8
2019-05-02T12:23:41.659Z,16.6
2019-05-02T12:24:40.762Z,16.4
2019-05-02T12:25:39.658Z,16.4
2019-05-02T12:26:41.695Z,16.5
2019-05-02T12:27:39.804Z,16.3
2019-05-02T12:28:39.818Z,16.4
2019-05-02T12:29:39.864Z,16.7
2019-05-02T12:30:41.842Z,16.5
2019-05-02T12:31:39.999Z,16.8
2019-05-02T12:32:40.076Z,16.8
2019-05-02T12:33:40.121Z,16.7
2019-05-02T12:34:41.937Z,16.5
2019-05-02T12:35:43.183Z,16.5
2019-05-02T12:36:40.333Z,16.5
2019-05-02T12:37:42.147Z,16.6
2019-05-02T12:38:42.018Z,16.5
2019-05-02T12:39:42.357Z,16.4
2019-05-02T12:40:42.153Z,16.5
2019-05-02T12:41:42.119Z,16.5
2019-05-02T12:42:41.815Z,16.7
2019-05-02T12:43:41.594Z,16.6
2019-05-02T12:44:42.584Z,16.7
2019-05-02T12:45:42.079Z,16.7
2019-05-02T12:46:42.136Z,16.5
2019-05-02T12:47:42.758Z,16.6
2019-05-02T12:48:42.221Z,16.7
2019-05-02T12:49:42.385Z,16.3
2019-05-02T12:50:41.751Z,16
2019-05-02T12:51:42.850Z,15.9
2019-05-02T12:52:42.860Z,16
2019-05-02T12:53:41.860Z,31.5
2019-05-02T12:54:41.703Z,16.3
2019-05-02T12:55:42.094Z,16.3
2019-05-02T12:56:41.935Z,16.6
2019-05-02T12:57:42.834Z,16.6
2019-05-02T12:58:42.718Z,16.6
2019-05-02T12:59:41.760Z,16
2019-05-02T13:00:53.016Z,16.1
2019-05-02T13:01:42.206Z,16.4
2019-05-02T13:02:41.809Z,16.6
2019-05-02T13:03:43.595Z,16.7
2019-05-02T13:04:42.116Z,16.7
2019-05-02T13:05:42.655Z,16.7
2019-05-02T13:06:42.495Z,16.5
2019-05-02T13:07:50.236Z,16.4
2019-05-02T13:08:42.176Z,16.2
2019-05-02T13:09:42.232Z,16
2019-05-02T13:10:42.350Z,16.2
2019-05-02T13:11:45.612Z,16.2
2019-05-02T13:12:42.447Z,16.2
2019-05-02T13:13:42.498Z,15.9
2019-05-02T13:14:42.556Z,16
2019-05-02T13:15:47.548Z,16
2019-05-02T13:16:43.063Z,16.1
2019-05-02T13:17:48.488Z,16.3
2019-05-02T13:18:42.764Z,16.2
2019-05-02T13:19:55.456Z,16
2019-05-02T13:20:42.868Z,16.1
2019-05-02T13:21:45.145Z,16.1
2019-05-02T13:22:43.003Z,16.2
2019-05-02T13:23:43.107Z,16
2019-05-02T13:24:46.871Z,16
2019-05-02T13:25:43.222Z,15.9
2019-05-02T13:26:43.280Z,15.9
2019-05-02T13:27:47.936Z,16
2019-05-02T13:28:44.172Z,16
2019-05-02T13:29:43.545Z,15.7
2019-05-02T13:30:46.544Z,15.4
2019-05-02T13:31:43.588Z,15.2
2019-05-02T13:32:43.578Z,15.2
2019-05-02T13:33:43.655Z,15.2
2019-05-02T13:34:45.481Z,15.5
2019-05-02T13:35:43.727Z,15.8
2019-05-02T13:36:43.884Z,15.7
2019-05-02T13:37:43.900Z,15.6
2019-05-02T13:38:43.956Z,15.6
2019-05-02T13:39:44.008Z,15.6
2019-05-02T13:40:44.045Z,15.7
2019-05-02T13:41:44.243Z,15.8
2019-05-02T13:42:44.196Z,23.7
2019-05-02T13:43:44.248Z,16.1
2019-05-02T13:44:44.301Z,15.8